createdAt,value
2019-03-15T00:01:04.406Z,92259.97
2019-03-15T00:03:37.537Z,92274.09
2019-03-15T00:06:10.617Z,92274.64
2019-03-15T00:08:43.806Z,92266.78
2019-03-15T00:11:16.767Z,92279.64
2019-03-15T00:13:50.120Z,92287.16
2019-03-15T00:16:23.049Z,92277.50
2019-03-15T00:18:56.186Z,92281.45
2019-03-15T00:21:29.106Z,92281.91
2019-03-15T00:24:02.287Z,92272.55
2019-03-15T00:26:35.457Z,92184.38
2019-03-15T00:29:08.188Z,92263.64
2019-03-15T00:31:41.264Z,92252.64
2019-03-15T00:34:14.146Z,92252.63
2019-03-15T00:36:47.177Z,92254.98
2019-03-15T00:39:20.369Z,92272.54
2019-03-15T00:41:53.661Z,92265.40
2019-03-15T00:44:26.737Z,92276.88
2019-03-15T00:46:59.777Z,92275.78
2019-03-15T00:49:32.906Z,92277.29
2019-03-15T00:52:06.159Z,92281.69
2019-03-15T00:54:39.471Z,92292.66
2019-03-15T00:57:12.678Z,92286.70
2019-03-15T00:59:45.687Z,92293.79
2019-03-15T01:02:18.797Z,92294.30
2019-03-15T01:04:52.068Z,92296.84
2019-03-15T01:07:25.188Z,92289.08
2019-03-15T01:09:58.259Z,92297.27
2019-03-15T01:12:31.098Z,92299.11
2019-03-15T01:15:05.065Z,92305.90
2019-03-15T01:17:38.338Z,92313.25
2019-03-15T01:20:11.405Z,92313.23
2019-03-15T01:22:44.447Z,92321.98
2019-03-15T01:25:17.376Z,92322.58
2019-03-15T01:27:50.557Z,92325.14
2019-03-15T01:30:23.528Z,92328.48
2019-03-15T01:32:56.688Z,92335.95
2019-03-15T01:35:33.137Z,92325.30
2019-03-15T01:38:05.092Z,92323.97
2019-03-15T01:40:38.929Z,92333.89
2019-03-15T01:43:13.293Z,92325.35
2019-03-15T01:45:46.667Z,92336.74
2019-03-15T01:48:19.597Z,92319.55
2019-03-15T01:50:52.588Z,92332.25
2019-03-15T01:53:25.697Z,92327.52
2019-03-15T01:55:58.807Z,92329.80
2019-03-15T01:58:31.917Z,92323.38
2019-03-15T02:01:05.411Z,92329.12
2019-03-15T02:03:39.562Z,92318.30
2019-03-15T02:06:12.847Z,92319.35
2019-03-15T02:08:46.005Z,92302.87
2019-03-15T02:11:19.030Z,92295.44
2019-03-15T02:13:52.127Z,92295.22
2019-03-15T02:16:25.007Z,92304.91
2019-03-15T02:18:58.171Z,92306.62
2019-03-15T02:21:31.177Z,92315.52
2019-03-15T02:24:04.804Z,92320.66
2019-03-15T02:26:37.817Z,92319.84
2019-03-15T02:29:10.866Z,92319.91
2019-03-15T02:31:45.028Z,92321.73
2019-03-15T02:34:18.068Z,92301.56
2019-03-15T02:36:51.087Z,92304.66
2019-03-15T02:39:24.177Z,92317.89
2019-03-15T02:41:59.017Z,92307.67
2019-03-15T02:44:31.858Z,92317.87
2019-03-15T02:47:05.434Z,92317.44
2019-03-15T02:49:38.468Z,92313.24
2019-03-15T02:52:11.606Z,92312.20
2019-03-15T02:54:44.822Z,92316.65
2019-03-15T02:57:17.940Z,92327.20
2019-03-15T02:59:51.088Z,92321.75
2019-03-15T03:02:24.398Z,92336.64
2019-03-15T03:04:57.577Z,92325.16
2019-03-15T03:07:30.749Z,92340.89
2019-03-15T03:10:03.960Z,92349.98
2019-03-15T03:12:37.079Z,92351.36
2019-03-15T03:15:10.062Z,92350.91
2019-03-15T03:17:43.368Z,92357.45
2019-03-15T03:20:16.517Z,92352.36
2019-03-15T03:22:49.679Z,92346.91
2019-03-15T03:25:22.939Z,92352.89
2019-03-15T03:27:55.972Z,92344.85
2019-03-15T03:30:29.659Z,92350.73
2019-03-15T03:33:02.990Z,92348.86
2019-03-15T03:35:36.098Z,92355.80
2019-03-15T03:38:09.201Z,92362.86
2019-03-15T03:40:42.221Z,92363.73
2019-03-15T03:43:15.196Z,92363.45
2019-03-15T03:45:48.377Z,92361.64
2019-03-15T03:48:21.617Z,92358.84
2019-03-15T03:50:54.727Z,92374.09
2019-03-15T03:53:27.716Z,92368.28
2019-03-15T03:56:00.845Z,92378.72
2019-03-15T03:58:34.046Z,92373.05
2019-03-15T04:01:07.692Z,92370.89
2019-03-15T04:03:41.038Z,92392.25
2019-03-15T04:06:14.147Z,92405.48
2019-03-15T04:08:47.207Z,92388.20
2019-03-15T04:11:20.318Z,92381.45
2019-03-15T04:13:53.347Z,92367.80
2019-03-15T04:16:26.491Z,92377.69
2019-03-15T04:18:59.507Z,92382.23
2019-03-15T04:21:32.631Z,92387.74
2019-03-15T04:24:05.696Z,92372.99
2019-03-15T04:26:38.823Z,92368.66
2019-03-15T04:29:12.063Z,92383.20
2019-03-15T04:31:45.443Z,92390.95
2019-03-15T04:34:18.625Z,92406.52
2019-03-15T04:36:51.573Z,92401.72
2019-03-15T04:39:24.813Z,92421.64
2019-03-15T04:41:57.694Z,92431.00
2019-03-15T04:44:31.014Z,92438.14
2019-03-15T04:47:04.423Z,92448.81
2019-03-15T04:49:37.565Z,92457.77
2019-03-15T04:52:10.633Z,92442.33
2019-03-15T04:54:43.743Z,92452.49
2019-03-15T04:57:16.564Z,92462.97
2019-03-15T04:59:49.672Z,92458.42
2019-03-15T05:02:22.603Z,92452.06
2019-03-15T05:04:55.543Z,92467.66
2019-03-15T05:07:28.629Z,92487.27
2019-03-15T05:10:01.934Z,92491.43
2019-03-15T05:12:34.955Z,92490.09
2019-03-15T05:15:07.671Z,92502.48
2019-03-15T05:17:40.793Z,92503.65
2019-03-15T05:20:13.623Z,92505.95
2019-03-15T05:22:46.823Z,92510.36
2019-03-15T05:25:19.664Z,92526.13
2019-03-15T05:27:53.073Z,92532.59
2019-03-15T05:30:26.072Z,92545.00
2019-03-15T05:32:59.364Z,92543.05
2019-03-15T05:35:32.303Z,92543.65
2019-03-15T05:38:05.803Z,92542.30
2019-03-15T05:40:38.964Z,92549.09
2019-03-15T05:43:12.093Z,92563.13
2019-03-15T05:45:45.122Z,92569.59
2019-03-15T05:48:18.183Z,92592.79
2019-03-15T05:50:51.343Z,92575.77
2019-03-15T05:53:24.233Z,92584.37
2019-03-15T05:55:57.263Z,92596.46
2019-03-15T05:58:30.155Z,92590.99
2019-03-15T06:01:04.039Z,92594.47
2019-03-15T06:03:47.878Z,92595.53
2019-03-15T06:06:12.375Z,92604.30
2019-03-15T06:08:45.199Z,92612.74
2019-03-15T06:11:18.094Z,92620.67
2019-03-15T06:13:51.053Z,92612.80
2019-03-15T06:16:24.063Z,92622.25
2019-03-15T06:18:56.852Z,92613.05
2019-03-15T06:21:29.925Z,92614.31
2019-03-15T06:24:03.195Z,92626.92
2019-03-15T06:26:36.374Z,92626.64
2019-03-15T06:29:09.074Z,92628.93
2019-03-15T06:31:42.105Z,92632.91
2019-03-15T06:34:15.074Z,92624.88
2019-03-15T06:36:48.046Z,92635.00
2019-03-15T06:39:21.040Z,92628.13
2019-03-15T06:41:54.043Z,92617.58
2019-03-15T06:44:27.286Z,92621.83
2019-03-15T06:47:00.523Z,92629.62
2019-03-15T06:49:33.444Z,92645.31
2019-03-15T06:52:06.152Z,92639.03
2019-03-15T06:54:38.885Z,92651.77
2019-03-15T06:57:11.741Z,92645.47
2019-03-15T06:59:44.762Z,92652.28
2019-03-15T07:02:17.510Z,92653.30
2019-03-15T07:04:50.715Z,92663.33
2019-03-15T07:07:23.453Z,92668.13
2019-03-15T07:09:56.564Z,92668.43
2019-03-15T07:12:29.572Z,92670.98
2019-03-15T07:15:02.484Z,92675.72
2019-03-15T07:17:35.452Z,92675.88
2019-03-15T07:20:08.122Z,92665.56
2019-03-15T07:22:41.203Z,92681.91
2019-03-15T07:25:14.093Z,92677.97
2019-03-15T07:27:47.334Z,92668.78
2019-03-15T07:30:20.113Z,92672.19
2019-03-15T07:32:53.224Z,92664.12
2019-03-15T07:35:26.323Z,92675.69
2019-03-15T07:37:59.542Z,92688.56
2019-03-15T07:40:32.565Z,92707.77
2019-03-15T07:43:05.803Z,92689.89
2019-03-15T07:45:38.813Z,92700.97
2019-03-15T07:48:21.840Z,92708.52
2019-03-15T07:50:46.304Z,92712.28
2019-03-15T07:53:19.304Z,92705.75
2019-03-15T07:55:52.352Z,92696.56
2019-03-15T07:58:25.253Z,92697.58
2019-03-15T08:00:58.303Z,92708.10
2019-03-15T08:03:31.202Z,92682.33
2019-03-15T08:06:05.007Z,92677.58
2019-03-15T08:08:38.193Z,92683.92
2019-03-15T08:11:11.484Z,92681.02
2019-03-15T08:13:44.635Z,92676.52
2019-03-15T08:16:17.962Z,92672.34
2019-03-15T08:18:51.120Z,92675.50
2019-03-15T08:21:24.153Z,92681.27
2019-03-15T08:23:57.343Z,92677.33
2019-03-15T08:26:30.486Z,92680.42
2019-03-15T08:29:03.864Z,92684.11
2019-03-15T08:31:37.064Z,92687.86
2019-03-15T08:34:09.985Z,92682.70
2019-03-15T08:36:42.903Z,92691.42
2019-03-15T08:39:15.943Z,92704.59
2019-03-15T08:41:49.102Z,92698.68
2019-03-15T08:44:22.233Z,92699.24
2019-03-15T08:46:55.373Z,92704.27
2019-03-15T08:49:28.562Z,92705.42
2019-03-15T08:52:03.953Z,92693.56
2019-03-15T08:54:36.862Z,92698.45
2019-03-15T08:57:11.084Z,92703.88
2019-03-15T08:59:55.536Z,92693.88
2019-03-15T09:02:18.903Z,92691.55
2019-03-15T09:04:52.104Z,92698.67
2019-03-15T09:07:24.993Z,92702.13
2019-03-15T09:09:58.203Z,92680.13
2019-03-15T09:12:31.102Z,92696.89
2019-03-15T09:15:04.743Z,92706.98
2019-03-15T09:17:37.994Z,92690.73
2019-03-15T09:20:10.893Z,92703.36
2019-03-15T09:22:43.892Z,92706.52
2019-03-15T09:25:19.680Z,92696.17
2019-03-15T09:27:51.604Z,92689.13
2019-03-15T09:30:24.868Z,92677.28
2019-03-15T09:32:58.033Z,92683.30
2019-03-15T09:35:31.097Z,92672.98
2019-03-15T09:38:04.911Z,92687.27
2019-03-15T09:40:38.044Z,92694.17
2019-03-15T09:43:11.073Z,92692.88
2019-03-15T09:45:44.323Z,92691.48
2019-03-15T09:48:17.444Z,92676.11
2019-03-15T09:50:51.751Z,92700.34
2019-03-15T09:53:26.043Z,92693.13
2019-03-15T09:55:59.383Z,92692.84
2019-03-15T09:58:32.533Z,92691.18
2019-03-15T10:01:06.192Z,92685.75
2019-03-15T10:03:39.543Z,92689.64
2019-03-15T10:06:16.609Z,92689.41
2019-03-15T10:08:47.294Z,92685.08
2019-03-15T10:11:20.183Z,92679.27
2019-03-15T10:13:53.274Z,92694.01
2019-03-15T10:16:26.943Z,92684.11
2019-03-15T10:19:00.234Z,92685.83
2019-03-15T10:21:33.296Z,92686.97
2019-03-15T10:24:05.945Z,92676.86
2019-03-15T10:26:38.914Z,92674.17
2019-03-15T10:29:15.685Z,92684.64
2019-03-15T10:31:46.466Z,92686.54
2019-03-15T10:34:19.503Z,92687.48
2019-03-15T10:36:52.723Z,92696.55
2019-03-15T10:39:25.914Z,92693.92
2019-03-15T10:41:58.924Z,92693.95
2019-03-15T10:44:32.083Z,92689.61
2019-03-15T10:47:05.531Z,92689.77
2019-03-15T10:49:38.563Z,92678.40
2019-03-15T10:52:11.713Z,92695.28
2019-03-15T10:54:44.448Z,92694.49
2019-03-15T10:57:17.654Z,92689.64
2019-03-15T10:59:51.083Z,92693.74
2019-03-15T11:02:24.304Z,92697.89
2019-03-15T11:04:57.354Z,92697.88
2019-03-15T11:07:30.343Z,92697.84
2019-03-15T11:10:03.808Z,92702.39
2019-03-15T11:12:36.886Z,92685.50
2019-03-15T11:15:09.973Z,92686.33
2019-03-15T11:17:42.943Z,92682.77
2019-03-15T11:20:16.274Z,92687.55
2019-03-15T11:22:49.431Z,92688.44
2019-03-15T11:25:22.444Z,92684.65
2019-03-15T11:27:55.843Z,92686.47
2019-03-15T11:30:29.095Z,92699.00
2019-03-15T11:33:02.000Z,92689.14
2019-03-15T11:35:34.973Z,92681.58
2019-03-15T11:38:07.672Z,92689.70
2019-03-15T11:40:40.734Z,92697.30
2019-03-15T11:43:13.674Z,92702.50
2019-03-15T11:45:46.943Z,92698.23
2019-03-15T11:48:20.075Z,92694.99
2019-03-15T11:50:53.288Z,92696.69
2019-03-15T11:53:26.363Z,92700.01
2019-03-15T11:55:59.794Z,92699.47
2019-03-15T11:58:32.974Z,92685.63
2019-03-15T12:01:06.142Z,92682.08
2019-03-15T12:03:52.193Z,92683.59
2019-03-15T12:06:14.190Z,92688.31
2019-03-15T12:08:47.169Z,92681.91
2019-03-15T12:11:20.352Z,92685.04
2019-03-15T12:13:55.388Z,92684.53
2019-03-15T12:16:28.601Z,92689.52
2019-03-15T12:19:01.427Z,92687.48
2019-03-15T12:21:34.387Z,92680.57
2019-03-15T12:24:07.507Z,92689.53
2019-03-15T12:26:40.904Z,92692.18
2019-03-15T12:29:14.590Z,92691.33
2019-03-15T12:31:47.389Z,92678.15
2019-03-15T12:34:20.391Z,92685.31
2019-03-15T12:36:53.787Z,92684.81
2019-03-15T12:39:26.928Z,92677.82
2019-03-15T12:41:59.749Z,92694.00
2019-03-15T12:44:32.728Z,92675.73
2019-03-15T12:47:06.358Z,92678.22
2019-03-15T12:49:40.011Z,92676.26
2019-03-15T12:52:13.090Z,92675.17
2019-03-15T12:54:46.109Z,92684.66
2019-03-15T12:57:19.717Z,92684.98
2019-03-15T12:59:52.676Z,92688.19
2019-03-15T13:02:25.541Z,92697.03
2019-03-15T13:04:58.596Z,92699.74
2019-03-15T13:07:31.471Z,92690.00
2019-03-15T13:10:04.573Z,92704.63
2019-03-15T13:12:37.496Z,92710.72
2019-03-15T13:15:10.281Z,92710.42
2019-03-15T13:17:43.042Z,92710.72
2019-03-15T13:20:15.834Z,92712.03
2019-03-15T13:22:48.587Z,92704.70
2019-03-15T13:25:21.670Z,92701.38
2019-03-15T13:27:54.534Z,92704.34
2019-03-15T13:30:27.388Z,92709.88
2019-03-15T13:33:00.369Z,92702.20
2019-03-15T13:35:33.494Z,92712.47
2019-03-15T13:38:06.590Z,92701.70
2019-03-15T13:40:39.529Z,92693.64
2019-03-15T13:43:14.528Z,92703.14
2019-03-15T13:45:47.548Z,92705.28
2019-03-15T13:48:20.827Z,92696.42
2019-03-15T13:50:53.628Z,92703.63
2019-03-15T13:53:26.648Z,92706.86
2019-03-15T13:55:59.787Z,92709.92
2019-03-15T13:58:32.836Z,92711.08
2019-03-15T14:01:06.230Z,92724.34
2019-03-15T14:03:38.967Z,92729.19
2019-03-15T14:06:12.173Z,92727.57
2019-03-15T14:08:45.367Z,92735.03
2019-03-15T14:11:18.787Z,92735.00
2019-03-15T14:13:52.267Z,92737.17
2019-03-15T14:16:25.430Z,92737.86
2019-03-15T14:18:58.589Z,92723.78
2019-03-15T14:21:31.548Z,92730.80
2019-03-15T14:24:04.488Z,92735.94
2019-03-15T14:26:37.587Z,92734.12
2019-03-15T14:29:10.427Z,92736.75
2019-03-15T14:31:43.648Z,92737.41
2019-03-15T14:34:16.529Z,92738.72
2019-03-15T14:36:49.649Z,92750.95
2019-03-15T14:39:22.690Z,92741.38
2019-03-15T14:41:56.306Z,92739.86
2019-03-15T14:44:29.535Z,92737.66
2019-03-15T14:47:02.591Z,92741.48
2019-03-15T14:49:38.159Z,92745.02
2019-03-15T14:52:10.396Z,92756.70
2019-03-15T14:54:43.551Z,92751.70
2019-03-15T14:57:16.448Z,92743.00
2019-03-15T14:59:49.409Z,92750.80
2019-03-15T15:02:22.487Z,92745.89
2019-03-15T15:04:55.728Z,92741.65
2019-03-15T15:07:30.909Z,92730.95
2019-03-15T15:10:03.608Z,92736.55
2019-03-15T15:12:37.268Z,92738.28
2019-03-15T15:15:10.356Z,92742.16
2019-03-15T15:17:43.398Z,92737.34
2019-03-15T15:20:16.870Z,92745.33
2019-03-15T15:22:49.875Z,92743.41
2019-03-15T15:25:22.769Z,92740.86
2019-03-15T15:28:04.406Z,92741.14
2019-03-15T15:30:30.291Z,92740.86
2019-03-15T15:33:03.447Z,92740.78
2019-03-15T15:35:36.609Z,92737.83
2019-03-15T15:38:10.129Z,92744.40
2019-03-15T15:40:43.167Z,92742.94
2019-03-15T15:43:17.047Z,92742.41
2019-03-15T15:45:49.908Z,92739.64
2019-03-15T15:48:23.115Z,92738.59
2019-03-15T15:50:56.208Z,92745.00
2019-03-15T15:53:29.228Z,92735.13
2019-03-15T15:56:02.231Z,92745.64
2019-03-15T15:58:35.208Z,92740.98
2019-03-15T16:01:08.187Z,92742.39
2019-03-15T16:03:41.428Z,92734.11
2019-03-15T16:06:14.828Z,92737.56
2019-03-15T16:08:48.228Z,92736.80
2019-03-15T16:11:21.247Z,92734.56
2019-03-15T16:13:54.247Z,92735.68
2019-03-15T16:16:27.208Z,92735.41
2019-03-15T16:19:01.327Z,92735.78
2019-03-15T16:21:34.347Z,92736.34
2019-03-15T16:24:07.328Z,92739.17
2019-03-15T16:26:40.847Z,92733.11
2019-03-15T16:29:13.947Z,92733.30
2019-03-15T16:31:46.827Z,92742.63
2019-03-15T16:34:22.050Z,92742.73
2019-03-15T16:36:54.967Z,92740.17
2019-03-15T16:39:28.207Z,92734.25
2019-03-15T16:42:01.258Z,92736.33
2019-03-15T16:44:34.128Z,92737.08
2019-03-15T16:47:07.228Z,92744.20
2019-03-15T16:49:40.110Z,92746.05
2019-03-15T16:52:13.067Z,92752.97
2019-03-15T16:54:45.968Z,92757.66
2019-03-15T16:57:19.087Z,92754.01
2019-03-15T16:59:52.027Z,92750.81
2019-03-15T17:02:24.908Z,92755.50
2019-03-15T17:04:57.987Z,92751.13
2019-03-15T17:07:31.351Z,92748.38
2019-03-15T17:10:04.196Z,92746.05
2019-03-15T17:12:37.087Z,92740.25
2019-03-15T17:15:10.068Z,92740.48
2019-03-15T17:17:43.607Z,92743.45
2019-03-15T17:20:17.411Z,92743.75
2019-03-15T17:22:50.587Z,92735.61
2019-03-15T17:25:28.187Z,92726.42
2019-03-15T17:28:01.463Z,92732.54
2019-03-15T17:30:34.447Z,92729.86
2019-03-15T17:33:07.507Z,92734.59
2019-03-15T17:35:40.268Z,92740.72
2019-03-15T17:38:13.047Z,92734.90
2019-03-15T17:40:46.171Z,92746.70
2019-03-15T17:43:19.387Z,92735.18
2019-03-15T17:45:52.450Z,92738.94
2019-03-15T17:48:25.367Z,92741.84
2019-03-15T17:50:58.447Z,92739.38
2019-03-15T17:53:31.387Z,92737.84
2019-03-15T17:56:04.207Z,92737.05
2019-03-15T17:58:37.387Z,92731.75
2019-03-15T18:01:10.807Z,92741.78
2019-03-15T18:03:47.199Z,92741.75
2019-03-15T18:06:19.251Z,92738.36
2019-03-15T18:08:52.295Z,92742.61
2019-03-15T18:11:25.387Z,92745.22
2019-03-15T18:13:58.613Z,92749.95
2019-03-15T18:16:31.603Z,92742.58
2019-03-15T18:19:04.668Z,92743.16
2019-03-15T18:21:37.687Z,92742.38
2019-03-15T18:24:10.989Z,92738.42
2019-03-15T18:26:43.930Z,92738.44
2019-03-15T18:29:26.143Z,92740.00
2019-03-15T18:31:51.810Z,92736.30
2019-03-15T18:34:24.990Z,92731.56
2019-03-15T18:36:57.936Z,92727.63
2019-03-15T18:39:31.909Z,92726.56
2019-03-15T18:42:04.829Z,92729.41
2019-03-15T18:44:38.227Z,92725.48
2019-03-15T18:47:11.270Z,92722.83
2019-03-15T18:49:44.309Z,92723.63
2019-03-15T18:52:17.508Z,92727.83
2019-03-15T18:54:50.325Z,92737.74
2019-03-15T18:57:23.227Z,92735.16
2019-03-15T18:59:56.435Z,92727.75
2019-03-15T19:02:29.268Z,92724.59
2019-03-15T19:05:02.258Z,92727.75
2019-03-15T19:07:36.096Z,92730.64
2019-03-15T19:10:09.110Z,92746.20
2019-03-15T19:12:42.389Z,92715.73
2019-03-15T19:15:15.269Z,92721.78
2019-03-15T19:17:48.223Z,92717.59
2019-03-15T19:20:21.047Z,92727.34
2019-03-15T19:22:54.000Z,92726.30
2019-03-15T19:25:27.267Z,92714.72
2019-03-15T19:28:00.162Z,92716.84
2019-03-15T19:30:32.988Z,92709.98
2019-03-15T19:33:05.751Z,92719.45
2019-03-15T19:35:38.692Z,92720.77
2019-03-15T19:38:14.755Z,92707.08
2019-03-15T19:40:46.110Z,92713.67
2019-03-15T19:43:19.158Z,92721.84
2019-03-15T19:45:52.158Z,92727.09
2019-03-15T19:48:24.991Z,92728.65
2019-03-15T19:50:58.052Z,92721.55
2019-03-15T19:53:30.929Z,92706.31
2019-03-15T19:56:03.736Z,92712.88
2019-03-15T19:58:36.749Z,92713.66
2019-03-15T20:01:09.892Z,92715.25
2019-03-15T20:03:44.195Z,92716.58
2019-03-15T20:06:17.887Z,92717.08
2019-03-15T20:08:51.230Z,92713.92
2019-03-15T20:11:24.194Z,92702.86
2019-03-15T20:13:57.588Z,92701.02
2019-03-15T20:16:31.132Z,92711.55
2019-03-15T20:19:03.929Z,92719.98
2019-03-15T20:21:36.929Z,92717.61
2019-03-15T20:24:09.847Z,92714.20
2019-03-15T20:26:43.048Z,92709.98
2019-03-15T20:29:15.868Z,92713.69
2019-03-15T20:31:49.394Z,92702.62
2019-03-15T20:34:22.415Z,92708.67
2019-03-15T20:36:55.739Z,92708.68
2019-03-15T20:39:28.547Z,92704.71
2019-03-15T20:42:01.512Z,92707.89
2019-03-15T20:44:54.831Z,92700.50
2019-03-15T20:47:31.231Z,92693.14
2019-03-15T20:50:06.956Z,92691.81
2019-03-15T20:52:40.095Z,92692.09
2019-03-15T20:55:16.284Z,92678.39
2019-03-15T20:57:49.777Z,92681.30
2019-03-15T21:00:34.824Z,92669.20
2019-03-15T21:02:57.311Z,92671.01
2019-03-15T21:05:30.213Z,92665.50
2019-03-15T21:08:03.132Z,92675.75
2019-03-15T21:10:36.160Z,92681.28
2019-03-15T21:13:08.966Z,92688.65
2019-03-15T21:15:43.383Z,92677.06
2019-03-15T21:18:16.389Z,92684.72
2019-03-15T21:20:49.497Z,92685.77
2019-03-15T21:23:22.632Z,92683.39
2019-03-15T21:25:55.910Z,92682.33
2019-03-15T21:28:29.070Z,92674.64
2019-03-15T21:31:02.057Z,92680.45
2019-03-15T21:33:34.849Z,92688.09
2019-03-15T21:36:07.730Z,92688.66
2019-03-15T21:38:48.160Z,92705.77
2019-03-15T21:41:15.749Z,92696.55
2019-03-15T21:43:48.643Z,92696.81
2019-03-15T21:46:21.626Z,92694.95
2019-03-15T21:48:54.698Z,92700.50
2019-03-15T21:51:27.738Z,92696.02
2019-03-15T21:54:00.673Z,92696.03
2019-03-15T21:56:33.727Z,92692.05
2019-03-15T21:59:06.987Z,92697.28
2019-03-15T22:01:39.868Z,92701.00
2019-03-15T22:04:12.710Z,92691.00
2019-03-15T22:06:45.792Z,92684.16
2019-03-15T22:09:18.679Z,92693.60
2019-03-15T22:11:51.950Z,92694.14
2019-03-15T22:14:24.834Z,92684.67
2019-03-15T22:16:58.035Z,92690.74
2019-03-15T22:19:31.193Z,92686.53
2019-03-15T22:22:04.292Z,92686.02
2019-03-15T22:24:37.486Z,92684.71
2019-03-15T22:27:10.370Z,92684.16
2019-03-15T22:29:52.975Z,92671.01
2019-03-15T22:32:18.011Z,92671.28
2019-03-15T22:34:51.090Z,92664.70
2019-03-15T22:37:23.961Z,92658.89
2019-03-15T22:39:57.159Z,92666.77
2019-03-15T22:42:30.052Z,92651.53
2019-03-15T22:45:03.099Z,92655.70
2019-03-15T22:47:36.249Z,92655.98
2019-03-15T22:50:09.095Z,92643.88
2019-03-15T22:52:42.109Z,92641.51
2019-03-15T22:55:17.030Z,92639.10
2019-03-15T22:57:59.796Z,92636.17
2019-03-15T23:00:26.309Z,92635.39
2019-03-15T23:02:59.695Z,92635.89
2019-03-15T23:05:33.630Z,92636.52
2019-03-15T23:08:06.830Z,92638.52
2019-03-15T23:10:39.619Z,92637.25
2019-03-15T23:13:12.609Z,92644.84
2019-03-15T23:15:45.489Z,92637.97
2019-03-15T23:18:18.554Z,92654.58
2019-03-15T23:20:52.847Z,92648.80
2019-03-15T23:23:25.871Z,92650.56
2019-03-15T23:25:59.789Z,92652.91
2019-03-15T23:28:32.631Z,92650.75
2019-03-15T23:31:05.709Z,92640.23
2019-03-15T23:33:39.169Z,92643.05
2019-03-15T23:36:12.329Z,92643.68
2019-03-15T23:38:45.099Z,92640.72
2019-03-15T23:41:18.174Z,92644.27
2019-03-15T23:43:52.012Z,92649.91
2019-03-15T23:46:25.334Z,92656.16
2019-03-15T23:48:58.192Z,92648.80
2019-03-15T23:51:31.409Z,92647.36
2019-03-15T23:54:04.250Z,92651.45
2019-03-15T23:56:37.347Z,92645.02
2019-03-15T23:59:10.428Z,92641.48
